Etusivu
METAR-TAF:

METAR-TAF

Lentoasemat :

Hope, Brittiläinen Kolumbia, Kanada

Leveyspiiri: 49-22N, Pituuspiiri: 121-29W, korkeus merenpinnasta: 39 m

Tämänhetkinen sää

Tämä raportti tehtiin 32 minuuttia sitten, kello 16.00 UTC
Tuuli 5 kn idästä/koillisesta, vaihdellen pohjoisen/koillisen ja idän välillä
Lämpötila 15°C
Kosteus 63%
Ilmanpaine 1007 hPa
Näkyvyys: 14.5 km
selkeää

METAR: CYHE 191600Z AUTO 07005KT 020V100 9SM CLR 15/08 A2974 RMK SLP074 DENSITY ALT 300FT

Aika: 09:32 (16:32 UTC)


TAF: puuttuu

Säähavainnot ja -ennusteet yli 4000 lentoasemalta (METAR- ja TAF-raportit).

Käytössä olevat sääasemat on merkitty karttaan keltaisilla ja punaisilla pisteillä.

Aseta hiiri pisteen päälle nähdäksesi sääaseman nimen.

Klikkaa sitten nähdäksesi säähavainnot ja -ennusteet.

Kartan vaihtaminen: klikkaa mustalla rastilla varustettuja vihreitä pisteitä, niin voit zoomata sisään; viivalla varustettua vihreää pistettä, niin voit zoomata ulos tai vihreitä nuolia, niin pääset viereisille kartoille.


METAR-TAF: